sensor_id;sensor_type;location;lat;lon;timestamp;temperature;humidity
21493;DHT22;10908;50.690;4.400;2023-07-31T00:00:06;17.80;85.80
21493;DHT22;10908;50.690;4.400;2023-07-31T00:02:34;17.70;85.90
21493;DHT22;10908;50.690;4.400;2023-07-31T00:05:00;17.80;85.80
21493;DHT22;10908;50.690;4.400;2023-07-31T00:07:26;17.80;85.70
21493;DHT22;10908;50.690;4.400;2023-07-31T00:09:51;17.80;85.70
21493;DHT22;10908;50.690;4.400;2023-07-31T00:12:19;17.80;85.70
21493;DHT22;10908;50.690;4.400;2023-07-31T00:14:44;17.80;85.70
21493;DHT22;10908;50.690;4.400;2023-07-31T00:17:11;17.80;85.70
21493;DHT22;10908;50.690;4.400;2023-07-31T00:19:36;17.70;85.60
21493;DHT22;10908;50.690;4.400;2023-07-31T00:22:02;17.80;85.60
21493;DHT22;10908;50.690;4.400;2023-07-31T00:24:28;17.80;85.30
21493;DHT22;10908;50.690;4.400;2023-07-31T00:26:53;17.70;85.30
21493;DHT22;10908;50.690;4.400;2023-07-31T00:29:19;17.80;85.20
21493;DHT22;10908;50.690;4.400;2023-07-31T00:31:44;17.80;85.20
21493;DHT22;10908;50.690;4.400;2023-07-31T00:34:10;17.80;85.00
21493;DHT22;10908;50.690;4.400;2023-07-31T00:36:36;17.80;84.80
21493;DHT22;10908;50.690;4.400;2023-07-31T00:39:01;17.80;84.70
21493;DHT22;10908;50.690;4.400;2023-07-31T00:41:27;17.80;85.00
21493;DHT22;10908;50.690;4.400;2023-07-31T00:43:53;17.80;85.10
21493;DHT22;10908;50.690;4.400;2023-07-31T00:46:18;17.90;85.20
21493;DHT22;10908;50.690;4.400;2023-07-31T00:48:44;17.90;84.90
21493;DHT22;10908;50.690;4.400;2023-07-31T00:51:10;17.80;85.10
21493;DHT22;10908;50.690;4.400;2023-07-31T00:53:36;17.90;85.10
21493;DHT22;10908;50.690;4.400;2023-07-31T00:56:03;17.80;85.10
21493;DHT22;10908;50.690;4.400;2023-07-31T00:58:29;17.90;85.10
21493;DHT22;10908;50.690;4.400;2023-07-31T01:00:55;17.90;85.20
21493;DHT22;10908;50.690;4.400;2023-07-31T01:03:21;17.80;85.80
21493;DHT22;10908;50.690;4.400;2023-07-31T01:06:31;17.80;85.90
21493;DHT22;10908;50.690;4.400;2023-07-31T01:11:56;17.80;86.40
21493;DHT22;10908;50.690;4.400;2023-07-31T01:14:22;17.80;86.50
21493;DHT22;10908;50.690;4.400;2023-07-31T01:16:48;17.80;86.80
21493;DHT22;10908;50.690;4.400;2023-07-31T01:19:14;17.80;86.90
21493;DHT22;10908;50.690;4.400;2023-07-31T01:25:00;17.80;86.60
21493;DHT22;10908;50.690;4.400;2023-07-31T01:27:35;17.80;86.80
21493;DHT22;10908;50.690;4.400;2023-07-31T01:30:16;17.80;87.10
21493;DHT22;10908;50.690;4.400;2023-07-31T01:32:48;17.70;87.00
21493;DHT22;10908;50.690;4.400;2023-07-31T01:35:14;17.80;86.90
21493;DHT22;10908;50.690;4.400;2023-07-31T01:37:40;17.70;86.70
21493;DHT22;10908;50.690;4.400;2023-07-31T01:40:06;17.70;86.70
21493;DHT22;10908;50.690;4.400;2023-07-31T01:42:32;17.70;87.00
21493;DHT22;10908;50.690;4.400;2023-07-31T01:44:58;17.70;86.90
21493;DHT22;10908;50.690;4.400;2023-07-31T01:47:23;17.80;86.60
21493;DHT22;10908;50.690;4.400;2023-07-31T01:49:49;17.80;86.60
21493;DHT22;10908;50.690;4.400;2023-07-31T01:52:15;17.80;86.60
21493;DHT22;10908;50.690;4.400;2023-07-31T01:54:41;17.70;86.60
21493;DHT22;10908;50.690;4.400;2023-07-31T01:57:06;17.80;86.60
21493;DHT22;10908;50.690;4.400;2023-07-31T01:59:32;17.80;86.70
21493;DHT22;10908;50.690;4.400;2023-07-31T02:01:58;17.80;86.60
21493;DHT22;10908;50.690;4.400;2023-07-31T02:04:24;17.80;86.80
21493;DHT22;10908;50.690;4.400;2023-07-31T02:06:49;17.80;86.70
21493;DHT22;10908;50.690;4.400;2023-07-31T02:09:15;17.80;86.60
21493;DHT22;10908;50.690;4.400;2023-07-31T02:11:40;17.80;86.50
21493;DHT22;10908;50.690;4.400;2023-07-31T02:14:06;17.80;86.60
21493;DHT22;10908;50.690;4.400;2023-07-31T02:16:32;17.80;86.80
21493;DHT22;10908;50.690;4.400;2023-07-31T02:18:57;17.80;86.80
21493;DHT22;10908;50.690;4.400;2023-07-31T02:21:23;17.80;86.60
21493;DHT22;10908;50.690;4.400;2023-07-31T02:23:48;17.80;86.60
21493;DHT22;10908;50.690;4.400;2023-07-31T02:26:14;17.70;86.80
21493;DHT22;10908;50.690;4.400;2023-07-31T02:28:40;17.80;86.90
21493;DHT22;10908;50.690;4.400;2023-07-31T02:31:08;17.70;87.30
21493;DHT22;10908;50.690;4.400;2023-07-31T02:33:34;17.70;87.30
21493;DHT22;10908;50.690;4.400;2023-07-31T02:35:59;17.60;87.60
21493;DHT22;10908;50.690;4.400;2023-07-31T02:38:25;17.60;87.70
21493;DHT22;10908;50.690;4.400;2023-07-31T02:40:50;17.60;87.70
21493;DHT22;10908;50.690;4.400;2023-07-31T02:43:16;17.70;87.60
21493;DHT22;10908;50.690;4.400;2023-07-31T02:45:42;17.60;87.30
21493;DHT22;10908;50.690;4.400;2023-07-31T02:48:07;17.70;87.40
21493;DHT22;10908;50.690;4.400;2023-07-31T02:50:33;17.70;87.30
21493;DHT22;10908;50.690;4.400;2023-07-31T02:52:59;17.60;87.30
21493;DHT22;10908;50.690;4.400;2023-07-31T02:55:24;17.60;87.30
21493;DHT22;10908;50.690;4.400;2023-07-31T02:57:50;17.60;87.30
21493;DHT22;10908;50.690;4.400;2023-07-31T03:00:17;17.50;87.40
21493;DHT22;10908;50.690;4.400;2023-07-31T03:02:43;17.60;87.40
21493;DHT22;10908;50.690;4.400;2023-07-31T03:05:09;17.60;87.20
21493;DHT22;10908;50.690;4.400;2023-07-31T03:07:34;17.50;87.40
21493;DHT22;10908;50.690;4.400;2023-07-31T03:10:00;17.50;87.50
21493;DHT22;10908;50.690;4.400;2023-07-31T03:12:27;17.50;87.60
21493;DHT22;10908;50.690;4.400;2023-07-31T03:14:53;17.50;87.40
21493;DHT22;10908;50.690;4.400;2023-07-31T03:17:18;17.50;87.40
21493;DHT22;10908;50.690;4.400;2023-07-31T03:19:44;17.50;87.30
21493;DHT22;10908;50.690;4.400;2023-07-31T03:22:09;17.60;87.30
21493;DHT22;10908;50.690;4.400;2023-07-31T03:24:35;17.50;87.20
21493;DHT22;10908;50.690;4.400;2023-07-31T03:27:01;17.50;87.10
21493;DHT22;10908;50.690;4.400;2023-07-31T03:29:26;17.50;87.30
21493;DHT22;10908;50.690;4.400;2023-07-31T03:31:52;17.40;87.40
21493;DHT22;10908;50.690;4.400;2023-07-31T03:34:18;17.50;87.40
21493;DHT22;10908;50.690;4.400;2023-07-31T03:36:43;17.50;87.20
21493;DHT22;10908;50.690;4.400;2023-07-31T03:39:09;17.50;87.20
21493;DHT22;10908;50.690;4.400;2023-07-31T03:41:35;17.60;87.20
21493;DHT22;10908;50.690;4.400;2023-07-31T03:44:01;17.60;86.90
21493;DHT22;10908;50.690;4.400;2023-07-31T03:46:26;17.60;86.80
21493;DHT22;10908;50.690;4.400;2023-07-31T03:48:52;17.60;86.80
21493;DHT22;10908;50.690;4.400;2023-07-31T03:51:18;17.60;86.70
21493;DHT22;10908;50.690;4.400;2023-07-31T03:53:44;17.60;86.80
21493;DHT22;10908;50.690;4.400;2023-07-31T03:56:09;17.60;87.10
21493;DHT22;10908;50.690;4.400;2023-07-31T03:58:35;17.60;86.90
21493;DHT22;10908;50.690;4.400;2023-07-31T04:01:02;17.60;87.00
21493;DHT22;10908;50.690;4.400;2023-07-31T04:03:29;17.60;86.90
21493;DHT22;10908;50.690;4.400;2023-07-31T04:05:55;17.60;86.50
21493;DHT22;10908;50.690;4.400;2023-07-31T04:08:21;17.60;86.50
21493;DHT22;10908;50.690;4.400;2023-07-31T04:10:48;17.60;86.40
21493;DHT22;10908;50.690;4.400;2023-07-31T04:13:14;17.60;86.30
21493;DHT22;10908;50.690;4.400;2023-07-31T04:15:39;17.60;86.30
21493;DHT22;10908;50.690;4.400;2023-07-31T04:18:06;17.50;86.60
21493;DHT22;10908;50.690;4.400;2023-07-31T04:20:32;17.50;86.60
21493;DHT22;10908;50.690;4.400;2023-07-31T04:22:57;17.50;86.60
21493;DHT22;10908;50.690;4.400;2023-07-31T04:25:23;17.40;86.80
21493;DHT22;10908;50.690;4.400;2023-07-31T04:27:48;17.50;86.90
21493;DHT22;10908;50.690;4.400;2023-07-31T04:30:14;17.50;86.80
21493;DHT22;10908;50.690;4.400;2023-07-31T04:32:40;17.40;86.70
21493;DHT22;10908;50.690;4.400;2023-07-31T04:35:05;17.50;86.90
21493;DHT22;10908;50.690;4.400;2023-07-31T04:37:31;17.40;87.00
21493;DHT22;10908;50.690;4.400;2023-07-31T04:39:57;17.40;87.10
21493;DHT22;10908;50.690;4.400;2023-07-31T04:42:23;17.50;87.10
21493;DHT22;10908;50.690;4.400;2023-07-31T04:44:48;17.50;87.00
21493;DHT22;10908;50.690;4.400;2023-07-31T04:47:14;17.50;87.20
21493;DHT22;10908;50.690;4.400;2023-07-31T04:49:39;17.40;87.20
21493;DHT22;10908;50.690;4.400;2023-07-31T04:52:05;17.50;87.00
21493;DHT22;10908;50.690;4.400;2023-07-31T04:54:31;17.40;86.90
21493;DHT22;10908;50.690;4.400;2023-07-31T04:56:56;17.40;87.20
21493;DHT22;10908;50.690;4.400;2023-07-31T04:59:22;17.40;87.10
21493;DHT22;10908;50.690;4.400;2023-07-31T05:01:48;17.30;87.50
21493;DHT22;10908;50.690;4.400;2023-07-31T05:04:14;17.30;87.60
21493;DHT22;10908;50.690;4.400;2023-07-31T05:06:40;17.30;87.70
21493;DHT22;10908;50.690;4.400;2023-07-31T05:09:05;17.30;87.90
21493;DHT22;10908;50.690;4.400;2023-07-31T05:11:31;17.30;88.10
21493;DHT22;10908;50.690;4.400;2023-07-31T05:13:57;17.20;88.30
21493;DHT22;10908;50.690;4.400;2023-07-31T05:16:22;17.20;88.40
21493;DHT22;10908;50.690;4.400;2023-07-31T05:18:48;17.20;88.70
21493;DHT22;10908;50.690;4.400;2023-07-31T05:21:14;17.30;88.80
21493;DHT22;10908;50.690;4.400;2023-07-31T05:23:39;17.10;88.80
21493;DHT22;10908;50.690;4.400;2023-07-31T05:26:06;17.00;89.00
21493;DHT22;10908;50.690;4.400;2023-07-31T05:28:34;17.00;89.10
21493;DHT22;10908;50.690;4.400;2023-07-31T05:31:01;17.00;89.30
21493;DHT22;10908;50.690;4.400;2023-07-31T05:33:27;17.00;89.20
21493;DHT22;10908;50.690;4.400;2023-07-31T05:35:52;17.10;89.50
21493;DHT22;10908;50.690;4.400;2023-07-31T05:38:18;17.10;89.30
21493;DHT22;10908;50.690;4.400;2023-07-31T05:40:44;17.00;89.20
21493;DHT22;10908;50.690;4.400;2023-07-31T05:43:10;17.00;89.10
21493;DHT22;10908;50.690;4.400;2023-07-31T05:45:36;17.10;89.20
21493;DHT22;10908;50.690;4.400;2023-07-31T05:48:02;17.10;88.90
21493;DHT22;10908;50.690;4.400;2023-07-31T05:50:28;17.10;88.70
21493;DHT22;10908;50.690;4.400;2023-07-31T05:52:54;17.10;88.50
21493;DHT22;10908;50.690;4.400;2023-07-31T05:55:19;17.10;88.40
21493;DHT22;10908;50.690;4.400;2023-07-31T05:57:46;17.10;88.40
21493;DHT22;10908;50.690;4.400;2023-07-31T06:00:12;17.20;88.20
21493;DHT22;10908;50.690;4.400;2023-07-31T06:02:38;17.20;88.20
21493;DHT22;10908;50.690;4.400;2023-07-31T06:05:05;17.30;88.00
21493;DHT22;10908;50.690;4.400;2023-07-31T06:07:32;17.20;87.70
21493;DHT22;10908;50.690;4.400;2023-07-31T06:09:57;17.30;87.80
21493;DHT22;10908;50.690;4.400;2023-07-31T06:12:31;17.30;87.70
21493;DHT22;10908;50.690;4.400;2023-07-31T06:14:57;17.30;87.50
21493;DHT22;10908;50.690;4.400;2023-07-31T06:17:22;17.30;87.40
21493;DHT22;10908;50.690;4.400;2023-07-31T06:19:48;17.30;87.40
21493;DHT22;10908;50.690;4.400;2023-07-31T06:22:14;17.40;87.20
21493;DHT22;10908;50.690;4.400;2023-07-31T06:24:40;17.40;87.10
21493;DHT22;10908;50.690;4.400;2023-07-31T06:27:06;17.40;86.90
21493;DHT22;10908;50.690;4.400;2023-07-31T06:29:32;17.40;86.90
21493;DHT22;10908;50.690;4.400;2023-07-31T06:31:58;17.40;86.80
21493;DHT22;10908;50.690;4.400;2023-07-31T06:34:24;17.40;86.80
21493;DHT22;10908;50.690;4.400;2023-07-31T06:36:50;17.40;86.60
21493;DHT22;10908;50.690;4.400;2023-07-31T06:39:15;17.40;86.70
21493;DHT22;10908;50.690;4.400;2023-07-31T06:41:42;17.40;86.60
21493;DHT22;10908;50.690;4.400;2023-07-31T06:44:08;17.40;86.30
21493;DHT22;10908;50.690;4.400;2023-07-31T06:46:34;17.40;86.10
21493;DHT22;10908;50.690;4.400;2023-07-31T06:48:59;17.40;86.40
21493;DHT22;10908;50.690;4.400;2023-07-31T06:51:25;17.40;85.90
21493;DHT22;10908;50.690;4.400;2023-07-31T06:53:50;17.40;85.90
21493;DHT22;10908;50.690;4.400;2023-07-31T06:56:16;17.40;86.00
21493;DHT22;10908;50.690;4.400;2023-07-31T06:58:41;17.40;85.80
21493;DHT22;10908;50.690;4.400;2023-07-31T07:01:07;17.60;85.70
21493;DHT22;10908;50.690;4.400;2023-07-31T07:03:33;17.60;85.40
21493;DHT22;10908;50.690;4.400;2023-07-31T07:05:58;17.80;85.20
21493;DHT22;10908;50.690;4.400;2023-07-31T07:08:24;17.90;84.70
21493;DHT22;10908;50.690;4.400;2023-07-31T07:10:50;17.90;84.00
21493;DHT22;10908;50.690;4.400;2023-07-31T07:13:16;17.80;83.90
21493;DHT22;10908;50.690;4.400;2023-07-31T07:15:47;17.80;84.20
21493;DHT22;10908;50.690;4.400;2023-07-31T07:18:13;17.80;84.30
21493;DHT22;10908;50.690;4.400;2023-07-31T07:20:39;17.80;84.20
21493;DHT22;10908;50.690;4.400;2023-07-31T07:23:05;17.80;84.10
21493;DHT22;10908;50.690;4.400;2023-07-31T07:25:31;17.80;84.10
21493;DHT22;10908;50.690;4.400;2023-07-31T07:27:56;17.80;83.50
21493;DHT22;10908;50.690;4.400;2023-07-31T07:30:22;17.80;83.30
21493;DHT22;10908;50.690;4.400;2023-07-31T07:32:49;17.80;83.40
21493;DHT22;10908;50.690;4.400;2023-07-31T07:35:14;17.90;83.50
21493;DHT22;10908;50.690;4.400;2023-07-31T07:37:40;17.90;83.20
21493;DHT22;10908;50.690;4.400;2023-07-31T07:40:06;17.90;83.00
21493;DHT22;10908;50.690;4.400;2023-07-31T07:42:32;17.90;83.20
21493;DHT22;10908;50.690;4.400;2023-07-31T07:44:58;18.00;82.90
21493;DHT22;10908;50.690;4.400;2023-07-31T07:47:23;18.10;82.80
21493;DHT22;10908;50.690;4.400;2023-07-31T07:49:49;18.00;82.40
21493;DHT22;10908;50.690;4.400;2023-07-31T07:52:14;18.00;82.70
21493;DHT22;10908;50.690;4.400;2023-07-31T07:54:40;18.00;82.80
21493;DHT22;10908;50.690;4.400;2023-07-31T07:57:06;18.00;82.40
21493;DHT22;10908;50.690;4.400;2023-07-31T07:59:31;18.00;82.60
21493;DHT22;10908;50.690;4.400;2023-07-31T08:01:57;18.00;82.60
21493;DHT22;10908;50.690;4.400;2023-07-31T08:04:23;17.90;83.00
21493;DHT22;10908;50.690;4.400;2023-07-31T08:06:49;18.00;83.10
21493;DHT22;10908;50.690;4.400;2023-07-31T08:09:14;18.10;83.00
21493;DHT22;10908;50.690;4.400;2023-07-31T08:11:40;18.20;83.00
21493;DHT22;10908;50.690;4.400;2023-07-31T08:14:06;18.10;83.60
21493;DHT22;10908;50.690;4.400;2023-07-31T08:16:31;18.20;83.80
21493;DHT22;10908;50.690;4.400;2023-07-31T08:18:57;18.20;84.50
21493;DHT22;10908;50.690;4.400;2023-07-31T08:21:23;18.00;84.60
21493;DHT22;10908;50.690;4.400;2023-07-31T08:23:49;18.00;85.30
21493;DHT22;10908;50.690;4.400;2023-07-31T08:26:15;17.80;85.30
21493;DHT22;10908;50.690;4.400;2023-07-31T08:28:41;17.80;86.10
21493;DHT22;10908;50.690;4.400;2023-07-31T08:31:07;17.80;86.10
21493;DHT22;10908;50.690;4.400;2023-07-31T08:33:32;17.90;86.20
21493;DHT22;10908;50.690;4.400;2023-07-31T08:35:58;17.80;86.10
21493;DHT22;10908;50.690;4.400;2023-07-31T08:38:25;18.00;86.10
21493;DHT22;10908;50.690;4.400;2023-07-31T08:40:51;18.00;85.70
21493;DHT22;10908;50.690;4.400;2023-07-31T08:43:17;17.90;85.60
21493;DHT22;10908;50.690;4.400;2023-07-31T08:45:44;17.80;85.80
21493;DHT22;10908;50.690;4.400;2023-07-31T08:48:11;17.80;86.20
21493;DHT22;10908;50.690;4.400;2023-07-31T08:50:37;17.80;86.10
21493;DHT22;10908;50.690;4.400;2023-07-31T08:53:03;17.80;86.00
21493;DHT22;10908;50.690;4.400;2023-07-31T08:55:29;17.80;86.30
21493;DHT22;10908;50.690;4.400;2023-07-31T08:57:57;17.90;86.20
21493;DHT22;10908;50.690;4.400;2023-07-31T09:00:24;17.90;86.00
21493;DHT22;10908;50.690;4.400;2023-07-31T09:03:02;18.00;85.80
21493;DHT22;10908;50.690;4.400;2023-07-31T09:05:30;17.90;86.00
21493;DHT22;10908;50.690;4.400;2023-07-31T09:07:57;18.00;85.80
21493;DHT22;10908;50.690;4.400;2023-07-31T09:10:24;18.00;85.60
21493;DHT22;10908;50.690;4.400;2023-07-31T09:12:51;18.00;85.40
21493;DHT22;10908;50.690;4.400;2023-07-31T09:15:17;18.00;85.20
21493;DHT22;10908;50.690;4.400;2023-07-31T09:17:43;18.00;85.50
21493;DHT22;10908;50.690;4.400;2023-07-31T09:20:17;17.90;85.50
21493;DHT22;10908;50.690;4.400;2023-07-31T09:22:44;18.10;85.30
21493;DHT22;10908;50.690;4.400;2023-07-31T09:25:26;18.10;85.10
21493;DHT22;10908;50.690;4.400;2023-07-31T09:27:58;18.10;85.20
21493;DHT22;10908;50.690;4.400;2023-07-31T09:30:24;18.30;85.60
21493;DHT22;10908;50.690;4.400;2023-07-31T09:32:51;18.30;86.10
21493;DHT22;10908;50.690;4.400;2023-07-31T09:35:32;18.40;86.50
21493;DHT22;10908;50.690;4.400;2023-07-31T09:38:00;18.40;85.70
21493;DHT22;10908;50.690;4.400;2023-07-31T09:40:37;18.50;86.00
21493;DHT22;10908;50.690;4.400;2023-07-31T09:43:07;18.70;85.60
21493;DHT22;10908;50.690;4.400;2023-07-31T09:45:35;18.60;84.60
21493;DHT22;10908;50.690;4.400;2023-07-31T09:48:15;18.60;84.30
21493;DHT22;10908;50.690;4.400;2023-07-31T09:50:45;18.60;84.70
21493;DHT22;10908;50.690;4.400;2023-07-31T09:53:11;18.60;84.50
21493;DHT22;10908;50.690;4.400;2023-07-31T09:55:38;18.50;84.30
21493;DHT22;10908;50.690;4.400;2023-07-31T09:58:06;18.50;84.30
21493;DHT22;10908;50.690;4.400;2023-07-31T10:00:32;18.60;84.40
21493;DHT22;10908;50.690;4.400;2023-07-31T10:02:59;18.70;83.90
21493;DHT22;10908;50.690;4.400;2023-07-31T10:05:35;18.70;83.70
21493;DHT22;10908;50.690;4.400;2023-07-31T10:08:02;18.80;83.50
21493;DHT22;10908;50.690;4.400;2023-07-31T10:10:28;18.70;83.70
21493;DHT22;10908;50.690;4.400;2023-07-31T10:12:56;18.80;83.90
21493;DHT22;10908;50.690;4.400;2023-07-31T10:15:22;18.80;83.40
21493;DHT22;10908;50.690;4.400;2023-07-31T10:17:50;18.80;83.40
21493;DHT22;10908;50.690;4.400;2023-07-31T10:20:16;18.90;83.70
21493;DHT22;10908;50.690;4.400;2023-07-31T10:22:43;19.00;83.30
21493;DHT22;10908;50.690;4.400;2023-07-31T10:25:09;19.00;83.00
21493;DHT22;10908;50.690;4.400;2023-07-31T10:27:41;19.10;82.70
21493;DHT22;10908;50.690;4.400;2023-07-31T10:30:12;19.20;82.70
21493;DHT22;10908;50.690;4.400;2023-07-31T10:32:41;19.40;82.30
21493;DHT22;10908;50.690;4.400;2023-07-31T10:35:08;19.50;81.70
21493;DHT22;10908;50.690;4.400;2023-07-31T10:37:41;19.60;81.60
21493;DHT22;10908;50.690;4.400;2023-07-31T10:40:19;19.70;81.00
21493;DHT22;10908;50.690;4.400;2023-07-31T10:42:49;19.80;80.70
21493;DHT22;10908;50.690;4.400;2023-07-31T10:45:34;19.80;80.30
21493;DHT22;10908;50.690;4.400;2023-07-31T10:50:30;19.60;80.50
21493;DHT22;10908;50.690;4.400;2023-07-31T10:52:58;19.70;81.00
21493;DHT22;10908;50.690;4.400;2023-07-31T10:55:38;19.80;80.40
21493;DHT22;10908;50.690;4.400;2023-07-31T10:58:22;19.90;80.00
21493;DHT22;10908;50.690;4.400;2023-07-31T11:00:48;20.00;80.40
21493;DHT22;10908;50.690;4.400;2023-07-31T11:03:19;20.00;79.10
21493;DHT22;10908;50.690;4.400;2023-07-31T11:06:02;20.00;79.10
21493;DHT22;10908;50.690;4.400;2023-07-31T11:08:33;19.90;79.20
21493;DHT22;10908;50.690;4.400;2023-07-31T11:15:53;19.70;80.40
21493;DHT22;10908;50.690;4.400;2023-07-31T11:18:19;19.70;80.30
21493;DHT22;10908;50.690;4.400;2023-07-31T11:20:45;19.70;80.40
21493;DHT22;10908;50.690;4.400;2023-07-31T11:23:11;19.60;80.20
21493;DHT22;10908;50.690;4.400;2023-07-31T11:25:39;19.60;80.20
21493;DHT22;10908;50.690;4.400;2023-07-31T11:28:12;19.50;80.70
21493;DHT22;10908;50.690;4.400;2023-07-31T11:30:39;19.50;80.60
21493;DHT22;10908;50.690;4.400;2023-07-31T11:33:07;19.50;81.00
21493;DHT22;10908;50.690;4.400;2023-07-31T11:35:34;19.60;80.80
21493;DHT22;10908;50.690;4.400;2023-07-31T11:38:01;19.70;80.80
21493;DHT22;10908;50.690;4.400;2023-07-31T11:40:27;19.70;80.20
21493;DHT22;10908;50.690;4.400;2023-07-31T11:42:58;19.60;80.10
21493;DHT22;10908;50.690;4.400;2023-07-31T11:45:25;19.60;80.60
21493;DHT22;10908;50.690;4.400;2023-07-31T11:47:52;19.50;80.70
21493;DHT22;10908;50.690;4.400;2023-07-31T11:50:19;19.50;81.10
21493;DHT22;10908;50.690;4.400;2023-07-31T11:52:45;19.60;80.90
21493;DHT22;10908;50.690;4.400;2023-07-31T11:55:12;19.60;81.00
21493;DHT22;10908;50.690;4.400;2023-07-31T11:57:39;19.70;80.80
21493;DHT22;10908;50.690;4.400;2023-07-31T12:00:08;19.80;80.70
21493;DHT22;10908;50.690;4.400;2023-07-31T12:02:36;19.90;81.00
21493;DHT22;10908;50.690;4.400;2023-07-31T12:05:03;19.90;80.70
21493;DHT22;10908;50.690;4.400;2023-07-31T12:07:46;20.10;80.30
21493;DHT22;10908;50.690;4.400;2023-07-31T12:10:26;20.20;80.00
21493;DHT22;10908;50.690;4.400;2023-07-31T12:13:03;20.20;79.80
21493;DHT22;10908;50.690;4.400;2023-07-31T12:17:58;20.30;79.40
21493;DHT22;10908;50.690;4.400;2023-07-31T12:20:24;20.30;79.40
21493;DHT22;10908;50.690;4.400;2023-07-31T12:22:50;20.30;79.40
21493;DHT22;10908;50.690;4.400;2023-07-31T12:25:16;20.20;78.90
21493;DHT22;10908;50.690;4.400;2023-07-31T12:27:44;20.20;79.00
21493;DHT22;10908;50.690;4.400;2023-07-31T12:30:27;20.10;79.00
21493;DHT22;10908;50.690;4.400;2023-07-31T12:32:53;20.00;79.10
21493;DHT22;10908;50.690;4.400;2023-07-31T12:35:19;20.00;79.50
21493;DHT22;10908;50.690;4.400;2023-07-31T12:37:44;19.90;79.70
21493;DHT22;10908;50.690;4.400;2023-07-31T12:40:10;19.80;80.30
21493;DHT22;10908;50.690;4.400;2023-07-31T12:42:36;19.80;80.90
21493;DHT22;10908;50.690;4.400;2023-07-31T12:45:02;19.90;81.60
21493;DHT22;10908;50.690;4.400;2023-07-31T12:47:29;20.00;81.80
21493;DHT22;10908;50.690;4.400;2023-07-31T12:49:55;20.00;81.70
21493;DHT22;10908;50.690;4.400;2023-07-31T12:52:20;20.10;80.80
21493;DHT22;10908;50.690;4.400;2023-07-31T12:54:46;20.20;80.60
21493;DHT22;10908;50.690;4.400;2023-07-31T12:57:12;20.30;80.20
21493;DHT22;10908;50.690;4.400;2023-07-31T12:59:37;20.30;80.00
21493;DHT22;10908;50.690;4.400;2023-07-31T13:02:03;20.20;80.40
21493;DHT22;10908;50.690;4.400;2023-07-31T13:04:29;20.10;80.70
21493;DHT22;10908;50.690;4.400;2023-07-31T13:06:54;19.90;81.20
21493;DHT22;10908;50.690;4.400;2023-07-31T13:09:20;19.80;81.60
21493;DHT22;10908;50.690;4.400;2023-07-31T13:11:46;19.80;81.90
21493;DHT22;10908;50.690;4.400;2023-07-31T13:14:11;19.70;82.70
21493;DHT22;10908;50.690;4.400;2023-07-31T13:16:37;19.70;82.80
21493;DHT22;10908;50.690;4.400;2023-07-31T13:19:03;19.60;82.90
21493;DHT22;10908;50.690;4.400;2023-07-31T13:21:29;19.50;82.90
21493;DHT22;10908;50.690;4.400;2023-07-31T13:23:54;19.60;83.20
21493;DHT22;10908;50.690;4.400;2023-07-31T13:26:23;19.60;83.60
21493;DHT22;10908;50.690;4.400;2023-07-31T13:28:48;19.60;84.20
21493;DHT22;10908;50.690;4.400;2023-07-31T13:31:14;19.50;84.30
21493;DHT22;10908;50.690;4.400;2023-07-31T13:33:40;19.40;84.80
21493;DHT22;10908;50.690;4.400;2023-07-31T13:36:05;19.40;85.40
21493;DHT22;10908;50.690;4.400;2023-07-31T13:38:31;19.40;85.40
21493;DHT22;10908;50.690;4.400;2023-07-31T13:40:56;19.30;85.70
21493;DHT22;10908;50.690;4.400;2023-07-31T13:43:22;19.30;86.30
21493;DHT22;10908;50.690;4.400;2023-07-31T13:45:48;19.20;86.60
21493;DHT22;10908;50.690;4.400;2023-07-31T13:48:13;19.20;86.70
21493;DHT22;10908;50.690;4.400;2023-07-31T13:50:39;19.10;86.70
21493;DHT22;10908;50.690;4.400;2023-07-31T13:53:04;19.10;86.80
21493;DHT22;10908;50.690;4.400;2023-07-31T13:55:30;19.00;87.10
21493;DHT22;10908;50.690;4.400;2023-07-31T13:57:55;19.00;87.20
21493;DHT22;10908;50.690;4.400;2023-07-31T14:00:21;19.00;87.30
21493;DHT22;10908;50.690;4.400;2023-07-31T14:02:47;18.90;87.40
21493;DHT22;10908;50.690;4.400;2023-07-31T14:05:13;18.90;87.70
21493;DHT22;10908;50.690;4.400;2023-07-31T14:07:38;19.00;87.70
21493;DHT22;10908;50.690;4.400;2023-07-31T14:10:05;19.10;87.50
21493;DHT22;10908;50.690;4.400;2023-07-31T14:12:30;19.10;87.50
21493;DHT22;10908;50.690;4.400;2023-07-31T14:14:56;19.10;87.50
21493;DHT22;10908;50.690;4.400;2023-07-31T14:17:21;18.90;87.10
21493;DHT22;10908;50.690;4.400;2023-07-31T14:19:47;19.00;87.40
21493;DHT22;10908;50.690;4.400;2023-07-31T14:22:13;18.90;87.30
21493;DHT22;10908;50.690;4.400;2023-07-31T14:24:38;19.00;87.50
21493;DHT22;10908;50.690;4.400;2023-07-31T14:27:04;19.00;87.80
21493;DHT22;10908;50.690;4.400;2023-07-31T14:29:30;19.20;87.70
21493;DHT22;10908;50.690;4.400;2023-07-31T14:31:56;19.40;87.50
21493;DHT22;10908;50.690;4.400;2023-07-31T14:34:21;19.30;87.10
21493;DHT22;10908;50.690;4.400;2023-07-31T14:36:47;19.40;86.70
21493;DHT22;10908;50.690;4.400;2023-07-31T14:39:13;19.50;86.80
21493;DHT22;10908;50.690;4.400;2023-07-31T14:41:38;19.30;86.80
21493;DHT22;10908;50.690;4.400;2023-07-31T14:44:04;19.30;87.30
21493;DHT22;10908;50.690;4.400;2023-07-31T14:46:29;19.30;87.30
21493;DHT22;10908;50.690;4.400;2023-07-31T14:48:55;19.20;87.50
21493;DHT22;10908;50.690;4.400;2023-07-31T14:51:21;19.10;87.90
21493;DHT22;10908;50.690;4.400;2023-07-31T14:53:46;19.10;88.00
21493;DHT22;10908;50.690;4.400;2023-07-31T14:56:12;19.10;88.00
21493;DHT22;10908;50.690;4.400;2023-07-31T14:58:38;19.00;88.40
21493;DHT22;10908;50.690;4.400;2023-07-31T15:01:03;19.00;88.60
21493;DHT22;10908;50.690;4.400;2023-07-31T15:03:29;18.90;88.60
21493;DHT22;10908;50.690;4.400;2023-07-31T15:05:55;18.90;88.90
21493;DHT22;10908;50.690;4.400;2023-07-31T15:08:21;18.90;89.10
21493;DHT22;10908;50.690;4.400;2023-07-31T15:10:47;18.90;88.90
21493;DHT22;10908;50.690;4.400;2023-07-31T15:13:12;18.80;89.10
21493;DHT22;10908;50.690;4.400;2023-07-31T15:15:38;18.60;89.10
21493;DHT22;10908;50.690;4.400;2023-07-31T15:18:04;18.70;89.40
21493;DHT22;10908;50.690;4.400;2023-07-31T15:20:29;18.80;89.40
21493;DHT22;10908;50.690;4.400;2023-07-31T15:22:55;18.70;89.30
21493;DHT22;10908;50.690;4.400;2023-07-31T15:25:21;18.60;89.60
21493;DHT22;10908;50.690;4.400;2023-07-31T15:27:47;18.60;89.80
21493;DHT22;10908;50.690;4.400;2023-07-31T15:30:12;18.60;89.90
21493;DHT22;10908;50.690;4.400;2023-07-31T15:32:38;18.60;89.70
21493;DHT22;10908;50.690;4.400;2023-07-31T15:35:05;18.60;89.70
21493;DHT22;10908;50.690;4.400;2023-07-31T15:37:31;18.60;89.80
21493;DHT22;10908;50.690;4.400;2023-07-31T15:39:56;18.60;89.70
21493;DHT22;10908;50.690;4.400;2023-07-31T15:54:35;18.50;89.80